Pagrindinis puslapis
METAR-TAF:

METAR-TAF

Oro uostai :

Kramfors, Švedija

platuma: 63-03N, ilguma: 017-46E, Aukštis: 10 m

Dabartinis oras

Ataskaita buvo paskelbta 12 minutes, ne 08:50 UTC
Vėjas 4 kt iš Šiaurės/Šiaurės Vakarų
Temperatūra -13°C
Drėgmė 92%
Slėgis 1006 hPa
Matomumas 10 km arba daugiau
nėra debesų žemiau 1500 m ir nėra kamuolinių lietaus debesų

METAR: ESNK 070850Z 34004KT CAVOK M13/M14 Q1006

Laikas: 10:02 (09:02 UTC)

Prognozė

Ataskaita buvo paskelbta 32 minutes, ne 08:30 UTC
Prognozė galioja nuo 07 metu 09 UTC su 07 metu 18 UTC
Vėjas 3 kt iš Vakarų/Šiaurės Vakarų
Matomumas 10 km arba daugiau
nėra debesų žemiau 1500 m ir nėra kamuolinių lietaus debesų
Tikimybė 40%
nuo 07 metu 09 UTC su 07 metu 10 UTC
Matomumas: 4000 m
rūkana

TAF: ESNK 070830Z 0709/0718 30003KT CAVOK PROB40 0709/0710 4000 BR

Orai ataskaitas ir orų prognozės (METAR, TAF).

turimą stotys yra geltonos ir raudonos taškus žemėlapyje.

Perkelti pele per norėdami pamatyti stoties vardą.

Tada spustelėkite, norėdami matyti oro stebėjimo ir prognozės.

Norėdami pakeisti žemėlapį: spustelėkite ant žalios mygtukų su juodo kryžiaus žemyn,; žalią mygtuką su brūkšneliu, jei norite nutolinti; arba žalių rodyklių gretimoms žemėlapius.


METAR-TAF: